Time;durP1;ratioP1;P1;durP2;ratioP2;P2;SDS_P1;SDS_P2;PMS_P1;PMS_P2;Temp;Humidity;BMP_temperature;BMP_pressure;BME280_temperature;BME280_humidity;BME280_pressure;Samples;Min_cycle;Max_cycle;Signal;HPM_P1;HPM_P2
2022/11/19 00:02:00;;;;;;;979.10;229.87;;;2.60;99.90;;;;;;5067672;28;20215;-50
2022/11/19 00:04:29;;;;;;;1999.90;551.17;;;2.60;99.90;;;;;;5071508;28;20574;-50
2022/11/19 00:06:57;;;;;;;210.83;105.23;;;2.40;99.90;;;;;;5072151;28;20737;-51
2022/11/19 00:09:26;;;;;;;144.90;108.90;;;2.40;99.90;;;;;;5069520;28;20885;-49
2022/11/19 00:14:39;;;;;;;364.13;170.33;;;2.40;99.90;;;;;;5066301;28;20268;-50
2022/11/19 00:17:07;;;;;;;1491.97;418.03;;;2.40;99.90;;;;;;5068283;28;20303;-51
2022/11/19 00:19:37;;;;;;;1957.77;522.60;;;2.50;99.90;;;;;;5062693;28;20243;-51
2022/11/19 00:22:05;;;;;;;152.67;118.63;;;2.40;99.90;;;;;;5066318;28;20688;-50
2022/11/19 00:24:33;;;;;;;1999.90;950.13;;;2.40;99.90;;;;;;5067466;28;20340;-50
2022/11/19 00:27:01;;;;;;;682.30;230.80;;;2.40;99.90;;;;;;5068139;28;20204;-49
2022/11/19 00:29:29;;;;;;;327.43;129.20;;;2.30;99.90;;;;;;5067185;28;20315;-51
2022/11/19 00:31:57;;;;;;;1999.90;978.57;;;2.30;99.90;;;;;;5067503;28;20298;-51
2022/11/19 00:34:25;;;;;;;1994.77;603.17;;;2.40;99.90;;;;;;5067521;28;20317;-50
2022/11/19 00:36:54;;;;;;;248.60;182.80;;;2.40;99.90;;;;;;5066264;28;20239;-51
2022/11/19 00:39:22;;;;;;;1785.00;484.87;;;2.40;99.90;;;;;;5065298;28;20299;-51
2022/11/19 00:41:50;;;;;;;1580.87;485.50;;;2.30;99.90;;;;;;5066975;28;20212;-51
2022/11/19 00:44:17;;;;;;;1999.90;581.10;;;2.20;99.90;;;;;;5069561;28;20307;-50
2022/11/19 00:46:46;;;;;;;1761.43;433.80;;;2.10;99.90;;;;;;5067988;28;20733;-50
2022/11/19 00:49:14;;;;;;;1734.27;507.20;;;2.20;99.90;;;;;;5073166;28;20204;-50
2022/11/19 00:51:42;;;;;;;447.17;215.03;;;2.20;99.90;;;;;;5068463;28;20221;-51
2022/11/19 00:54:11;;;;;;;573.97;170.40;;;2.20;99.90;;;;;;5068706;28;20817;-51
2022/11/19 00:56:39;;;;;;;1418.33;300.73;;;2.10;99.90;;;;;;5065775;28;20284;-51
2022/11/19 00:59:07;;;;;;;1530.73;430.13;;;2.20;99.90;;;;;;5069562;28;20296;-51
2022/11/19 01:01:35;;;;;;;986.73;311.70;;;2.30;99.90;;;;;;5070637;28;20294;-51
2022/11/19 01:04:05;;;;;;;1999.90;927.53;;;2.20;99.90;;;;;;5068857;28;20239;-51
2022/11/19 01:06:33;;;;;;;1999.90;720.93;;;2.20;99.90;;;;;;5071636;28;20284;-51
2022/11/19 01:09:01;;;;;;;498.37;280.10;;;1.90;99.90;;;;;;5069117;28;20585;-51
2022/11/19 01:11:32;;;;;;;1999.90;576.67;;;2.00;99.90;;;;;;5069954;28;20442;-51
2022/11/19 01:14:01;;;;;;;1652.23;392.20;;;2.00;99.90;;;;;;5066857;28;20221;-51
2022/11/19 01:16:30;;;;;;;1289.37;423.73;;;1.90;99.90;;;;;;5072255;28;20227;-51
2022/11/19 01:18:59;;;;;;;1999.90;712.13;;;2.00;99.90;;;;;;5064624;28;20205;-51
2022/11/19 01:21:28;;;;;;;563.77;270.13;;;2.00;99.90;;;;;;5070679;28;20284;-50
2022/11/19 01:23:57;;;;;;;789.83;266.97;;;2.00;99.90;;;;;;5071226;28;20252;-51
2022/11/19 01:26:26;;;;;;;1999.90;657.50;;;1.90;99.90;;;;;;5069943;28;20296;-51
2022/11/19 01:28:56;;;;;;;765.00;289.80;;;2.00;99.90;;;;;;5070249;28;20288;-51
2022/11/19 01:31:26;;;;;;;1999.90;926.30;;;1.80;99.90;;;;;;5071062;28;20666;-51
2022/11/19 01:33:55;;;;;;;1999.90;654.13;;;1.90;99.90;;;;;;5074607;28;20252;-50
2022/11/19 01:36:25;;;;;;;1269.93;376.43;;;1.80;99.90;;;;;;5066478;28;20239;-50
2022/11/19 01:38:53;;;;;;;1999.90;760.60;;;1.80;99.90;;;;;;5073289;28;20232;-51
2022/11/19 01:41:24;;;;;;;1999.90;715.07;;;1.90;99.90;;;;;;5070514;28;20810;-51
2022/11/19 01:43:58;;;;;;;130.00;96.47;;;1.90;99.90;;;;;;5071629;28;20328;-51
2022/11/19 01:46:28;;;;;;;1999.90;944.87;;;1.80;99.90;;;;;;5071067;28;20200;-51
2022/11/19 01:49:01;;;;;;;1999.90;954.93;;;1.60;99.90;;;;;;5072574;28;20236;-51
2022/11/19 01:51:35;;;;;;;1171.80;314.73;;;1.80;99.90;;;;;;5070378;28;20263;-51
2022/11/19 01:54:08;;;;;;;1999.90;650.00;;;1.70;99.90;;;;;;5073041;28;20704;-51
2022/11/19 01:56:36;;;;;;;1999.90;874.73;;;1.80;99.90;;;;;;5074825;28;20296;-51
2022/11/19 01:59:11;;;;;;;1239.07;374.60;;;1.90;99.90;;;;;;5069925;28;20756;-50
2022/11/19 02:01:39;;;;;;;1999.90;856.47;;;1.80;99.90;;;;;;5067060;28;20200;-51
2022/11/19 02:04:07;;;;;;;1999.90;805.30;;;1.70;99.90;;;;;;5069318;28;20839;-51
2022/11/19 02:06:36;;;;;;;270.33;149.50;;;1.80;99.90;;;;;;5070299;28;20252;-51
2022/11/19 02:09:04;;;;;;;342.97;184.50;;;1.70;99.90;;;;;;5071799;28;20774;-50
2022/11/19 02:12:13;;;;;;;1016.47;351.27;;;1.80;99.90;;;;;;5072010;28;20293;-51
2022/11/19 02:15:20;;;;;;;310.53;210.83;;;1.80;99.90;;;;;;5062886;28;20228;-50
2022/11/19 02:18:07;;;;;;;180.40;99.10;;;1.80;99.90;;;;;;5063854;28;20621;-51
2022/11/19 02:20:45;;;;;;;1038.77;392.43;;;1.70;99.90;;;;;;5068545;28;20300;-50
2022/11/19 02:23:51;;;;;;;190.57;118.00;;;1.60;99.90;;;;;;5069961;28;20236;-51
2022/11/19 02:26:53;;;;;;;148.47;133.47;;;1.60;99.90;;;;;;5069326;28;20252;-51
2022/11/19 02:29:55;;;;;;;200.70;142.70;;;1.70;99.90;;;;;;5041257;28;20204;-50
2022/11/19 02:32:30;;;;;;;233.53;161.67;;;1.80;99.90;;;;;;5067534;28;20217;-51
2022/11/19 02:35:04;;;;;;;1823.13;577.53;;;1.80;99.90;;;;;;5067861;28;20314;-51
2022/11/19 02:37:40;;;;;;;795.17;348.00;;;1.90;99.90;;;;;;5070256;28;20568;-51
2022/11/19 02:40:13;;;;;;;402.87;230.87;;;1.80;99.90;;;;;;5069132;28;20201;-51
2022/11/19 02:42:47;;;;;;;101.83;86.87;;;1.80;99.90;;;;;;5067801;28;20284;-51
2022/11/19 02:45:21;;;;;;;256.53;187.40;;;1.80;99.90;;;;;;5070914;28;20238;-51
2022/11/19 02:47:53;;;;;;;1335.40;480.20;;;1.90;99.90;;;;;;5067039;28;20207;-51
2022/11/19 02:50:26;;;;;;;537.87;259.27;;;1.90;99.90;;;;;;5068644;28;20289;-51
2022/11/19 02:52:54;;;;;;;183.37;135.80;;;1.80;99.90;;;;;;5064665;28;20227;-50
2022/11/19 02:55:23;;;;;;;1862.27;566.00;;;1.80;99.90;;;;;;5068531;28;20249;-51
2022/11/19 02:57:58;;;;;;;426.13;241.07;;;1.70;99.90;;;;;;5069186;28;20212;-50
2022/11/19 03:06:09;;;;;;;744.77;300.73;;;1.70;99.90;;;;;;5065588;28;20295;-50
2022/11/19 03:08:37;;;;;;;1856.87;457.83;;;1.70;99.90;;;;;;5069659;28;20629;-50
2022/11/19 03:11:14;;;;;;;1696.97;392.63;;;1.60;99.90;;;;;;5069082;28;20258;-50
2022/11/19 03:16:42;;;;;;;1582.03;451.63;;;1.60;99.90;;;;;;5069359;28;20205;-51
2022/11/19 03:19:31;;;;;;;1999.90;801.47;;;1.60;99.90;;;;;;5063598;28;20718;-50
2022/11/19 03:22:07;;;;;;;1308.23;400.27;;;1.60;99.90;;;;;;5068333;28;20274;-51
2022/11/19 03:24:39;;;;;;;374.03;178.67;;;1.60;99.90;;;;;;5068560;28;20230;-51
2022/11/19 03:27:12;;;;;;;1461.13;496.10;;;1.50;99.90;;;;;;5068474;28;20212;-51
2022/11/19 03:29:45;;;;;;;606.30;180.60;;;1.70;99.90;;;;;;5067453;28;20480;-51
2022/11/19 03:32:18;;;;;;;503.53;198.47;;;1.70;99.90;;;;;;5066941;28;20236;-51
2022/11/19 03:34:50;;;;;;;1970.13;500.30;;;1.70;99.90;;;;;;5066964;28;20232;-51
2022/11/19 03:37:22;;;;;;;1139.13;323.50;;;1.60;99.90;;;;;;5068252;28;20315;-49
2022/11/19 03:39:52;;;;;;;1201.07;344.33;;;1.60;99.90;;;;;;5068604;28;20937;-51
2022/11/19 03:42:21;;;;;;;1266.60;425.00;;;1.60;99.90;;;;;;5068112;28;20225;-50
2022/11/19 03:44:52;;;;;;;139.93;124.47;;;1.60;99.90;;;;;;5067297;28;20225;-51
2022/11/19 03:47:26;;;;;;;1999.90;751.47;;;1.50;99.90;;;;;;5064604;28;20297;-51
2022/11/19 03:50:01;;;;;;;1733.30;441.30;;;1.60;99.90;;;;;;5064310;28;20730;-51
2022/11/19 03:52:29;;;;;;;179.40;140.50;;;1.50;99.90;;;;;;5067590;28;20322;-51
2022/11/19 03:54:57;;;;;;;1804.47;432.63;;;1.60;99.90;;;;;;5067121;28;20228;-51
2022/11/19 03:57:27;;;;;;;1999.90;635.23;;;1.60;99.90;;;;;;5067092;28;20305;-51
2022/11/19 03:59:55;;;;;;;1999.90;734.73;;;1.60;99.90;;;;;;5068887;28;20291;-51
2022/11/19 04:02:25;;;;;;;1999.90;644.00;;;1.60;99.90;;;;;;5067871;28;20301;-50
2022/11/19 04:04:53;;;;;;;1744.13;489.03;;;1.50;99.90;;;;;;5067653;28;20787;-50
2022/11/19 04:07:22;;;;;;;1276.93;493.63;;;1.50;99.90;;;;;;5063940;28;20241;-52
2022/11/19 04:09:51;;;;;;;882.53;227.53;;;1.60;99.90;;;;;;5067668;28;20268;-51
2022/11/19 04:12:21;;;;;;;135.77;120.83;;;1.50;99.90;;;;;;5067449;28;20791;-51
2022/11/19 04:14:49;;;;;;;605.97;282.80;;;1.50;99.90;;;;;;5068158;28;20249;-51
2022/11/19 04:17:18;;;;;;;653.17;266.77;;;1.50;99.90;;;;;;5068078;28;20665;-51
2022/11/19 04:19:48;;;;;;;1999.90;830.43;;;1.40;99.90;;;;;;5067671;28;20289;-51
2022/11/19 04:22:16;;;;;;;1999.90;630.10;;;1.50;99.90;;;;;;5067103;28;20197;-51
2022/11/19 04:24:44;;;;;;;1999.90;632.60;;;1.50;99.90;;;;;;5067543;28;20319;-51
2022/11/19 04:27:12;;;;;;;1687.00;436.73;;;1.40;99.90;;;;;;5068427;28;20298;-50
2022/11/19 04:29:40;;;;;;;1945.67;507.40;;;1.20;99.90;;;;;;5067148;28;20246;-50
2022/11/19 04:32:08;;;;;;;1913.83;574.73;;;1.20;99.90;;;;;;5067602;28;20228;-51
2022/11/19 04:34:36;;;;;;;1999.90;880.93;;;1.20;99.90;;;;;;5066526;28;20224;-50
2022/11/19 04:37:06;;;;;;;1999.90;863.60;;;1.20;99.90;;;;;;5068026;28;20299;-51
2022/11/19 04:39:34;;;;;;;1464.37;432.53;;;1.20;99.90;;;;;;5064320;28;20293;-50
2022/11/19 04:42:02;;;;;;;1999.90;503.10;;;1.10;99.90;;;;;;5067230;28;20216;-51
2022/11/19 04:44:31;;;;;;;1999.90;958.77;;;0.90;99.90;;;;;;5067620;28;20659;-51
2022/11/19 04:47:00;;;;;;;1309.03;497.33;;;1.10;99.90;;;;;;5067717;28;20303;-51
2022/11/19 04:49:28;;;;;;;1999.90;884.83;;;1.10;99.90;;;;;;5067540;28;20295;-50
2022/11/19 04:51:56;;;;;;;1999.90;812.93;;;1.20;99.90;;;;;;5067492;28;20651;-51
2022/11/19 04:54:25;;;;;;;1999.90;939.87;;;1.10;99.90;;;;;;5067807;28;20304;-50
2022/11/19 04:56:53;;;;;;;1999.90;876.07;;;1.10;99.90;;;;;;5067618;28;20915;-50
2022/11/19 04:59:21;;;;;;;504.27;243.07;;;1.00;99.90;;;;;;5067294;28;20652;-51
2022/11/19 05:01:49;;;;;;;1706.27;428.60;;;1.00;99.90;;;;;;5064203;28;20256;-50
2022/11/19 05:04:17;;;;;;;167.97;119.53;;;1.00;99.90;;;;;;5064168;28;20322;-51
2022/11/19 05:06:46;;;;;;;73.97;56.53;;;1.10;99.90;;;;;;5071447;28;20303;-51
2022/11/19 05:09:14;;;;;;;1549.93;367.93;;;1.10;99.90;;;;;;5071716;28;20647;-50
2022/11/19 05:11:43;;;;;;;1535.13;457.27;;;1.10;99.90;;;;;;5070783;28;20206;-51
2022/11/19 05:14:11;;;;;;;895.37;265.73;;;1.10;99.90;;;;;;5071314;28;20344;-51
2022/11/19 05:16:39;;;;;;;1999.90;685.43;;;1.00;99.90;;;;;;5070838;28;20633;-50
2022/11/19 05:19:07;;;;;;;192.63;145.77;;;1.10;99.90;;;;;;5069645;28;20292;-50
2022/11/19 05:21:35;;;;;;;136.70;117.57;;;1.10;99.90;;;;;;5070471;28;20683;-50
2022/11/19 05:24:04;;;;;;;1999.90;616.13;;;1.10;99.90;;;;;;5069231;28;20269;-51
2022/11/19 05:26:32;;;;;;;855.73;344.03;;;1.10;99.90;;;;;;5070650;28;20209;-50
2022/11/19 05:29:01;;;;;;;1999.90;993.63;;;1.00;99.90;;;;;;5070714;28;20297;-51
2022/11/19 05:31:30;;;;;;;1063.73;373.40;;;1.10;99.90;;;;;;5071224;28;20208;-50
2022/11/19 05:33:58;;;;;;;1999.90;678.87;;;1.10;99.90;;;;;;5068986;28;20236;-50
2022/11/19 05:36:26;;;;;;;646.37;321.60;;;1.10;99.90;;;;;;5069471;28;20286;-50
2022/11/19 05:38:54;;;;;;;1180.67;404.13;;;1.00;99.90;;;;;;5070726;28;20338;-51
2022/11/19 05:41:22;;;;;;;832.77;288.53;;;0.90;99.90;;;;;;5070371;28;20291;-51
2022/11/19 05:43:50;;;;;;;1999.90;858.33;;;0.90;99.90;;;;;;5067261;28;20322;-51
2022/11/19 05:46:20;;;;;;;1999.90;749.73;;;1.00;99.90;;;;;;5070478;28;20296;-51
2022/11/19 05:48:48;;;;;;;961.07;335.60;;;0.90;99.90;;;;;;5069506;28;20214;-51
2022/11/19 05:51:16;;;;;;;1999.90;827.57;;;0.80;99.90;;;;;;5070717;28;20294;-51
2022/11/19 05:53:44;;;;;;;1485.87;480.87;;;0.80;99.90;;;;;;5068739;28;20331;-51
2022/11/19 05:56:12;;;;;;;294.73;218.90;;;0.80;99.90;;;;;;5069211;28;20200;-51
2022/11/19 05:58:40;;;;;;;720.80;327.77;;;0.90;99.90;;;;;;5070803;28;20289;-51
2022/11/19 06:01:08;;;;;;;262.83;146.70;;;0.90;99.90;;;;;;5066189;28;20296;-51
2022/11/19 06:03:39;;;;;;;1999.90;772.73;;;0.90;99.90;;;;;;5069306;28;20306;-51
2022/11/19 06:06:08;;;;;;;1603.97;659.63;;;0.90;99.90;;;;;;5070318;28;20870;-51
2022/11/19 06:08:36;;;;;;;1999.90;656.97;;;1.00;99.90;;;;;;5069983;28;20265;-51
2022/11/19 06:11:04;;;;;;;1999.90;901.73;;;0.90;99.90;;;;;;5070303;28;20302;-51
2022/11/19 06:13:32;;;;;;;186.73;167.53;;;0.70;99.90;;;;;;5067711;28;20239;-50
2022/11/19 06:16:00;;;;;;;1999.90;730.27;;;0.70;99.90;;;;;;5069730;28;20211;-51
2022/11/19 06:18:28;;;;;;;1999.90;923.73;;;0.60;99.90;;;;;;5070415;28;20299;-51
2022/11/19 06:20:57;;;;;;;1393.90;465.97;;;0.70;99.90;;;;;;5069525;28;20326;-51
2022/11/19 06:23:25;;;;;;;1663.70;542.77;;;0.70;99.90;;;;;;5070536;28;20228;-51
2022/11/19 06:25:54;;;;;;;1896.47;571.90;;;0.70;99.90;;;;;;5069455;28;20238;-50
2022/11/19 06:28:22;;;;;;;1999.90;734.87;;;0.70;99.90;;;;;;5066472;28;20207;-51
2022/11/19 06:30:50;;;;;;;1729.80;648.13;;;0.60;99.90;;;;;;5074403;28;20326;-52
2022/11/19 06:33:19;;;;;;;1984.40;678.73;;;0.60;99.90;;;;;;5074568;28;20349;-51
2022/11/19 06:35:49;;;;;;;755.83;408.80;;;0.50;99.90;;;;;;5071990;28;20750;-51
2022/11/19 06:38:18;;;;;;;1999.90;848.83;;;0.60;99.90;;;;;;5075709;28;20286;-51
2022/11/19 06:40:47;;;;;;;1923.80;653.13;;;0.60;99.90;;;;;;5074037;28;20220;-51
2022/11/19 06:43:15;;;;;;;1999.90;799.07;;;0.60;99.90;;;;;;5073652;28;20695;-50
2022/11/19 06:45:43;;;;;;;1999.90;942.23;;;0.50;99.90;;;;;;5071384;28;20289;-49
2022/11/19 06:48:11;;;;;;;1214.20;531.73;;;0.60;99.90;;;;;;5077766;28;20294;-51
2022/11/19 06:50:39;;;;;;;1353.07;535.20;;;0.50;99.90;;;;;;5080098;28;20218;-50
2022/11/19 06:53:10;;;;;;;1999.90;951.43;;;0.50;99.90;;;;;;5081590;28;20318;-51
2022/11/19 06:55:39;;;;;;;1991.97;655.67;;;0.60;99.90;;;;;;5079260;28;20199;-51
2022/11/19 06:58:08;;;;;;;1999.90;839.53;;;0.60;99.90;;;;;;5077724;28;20210;-51
2022/11/19 07:00:36;;;;;;;1999.90;732.13;;;0.60;99.90;;;;;;5065989;28;20292;-50
2022/11/19 07:03:04;;;;;;;1999.90;898.47;;;0.60;99.90;;;;;;5069344;28;20296;-51
2022/11/19 07:05:32;;;;;;;523.80;420.97;;;0.60;99.90;;;;;;5069787;28;20308;-50
2022/11/19 07:08:00;;;;;;;906.73;473.50;;;0.60;99.90;;;;;;5071063;28;20297;-51
2022/11/19 07:10:32;;;;;;;462.00;374.27;;;0.60;99.90;;;;;;5074141;28;20209;-50
2022/11/19 07:13:02;;;;;;;864.20;471.43;;;0.70;99.90;;;;;;5068038;28;20712;-50
2022/11/19 07:15:30;;;;;;;1144.60;557.50;;;0.70;99.90;;;;;;5063861;28;20284;-52
2022/11/19 07:17:58;;;;;;;1145.13;546.23;;;0.80;99.90;;;;;;5066197;28;20308;-50
2022/11/19 07:20:26;;;;;;;1003.17;506.70;;;0.80;99.90;;;;;;5065622;28;20199;-52
2022/11/19 07:22:54;;;;;;;1999.90;835.87;;;0.70;99.90;;;;;;5065321;28;20805;-51
2022/11/19 07:25:27;;;;;;;1999.90;741.80;;;0.70;99.90;;;;;;5067288;28;20205;-51
2022/11/19 07:27:55;;;;;;;1886.37;760.70;;;0.70;99.90;;;;;;5066271;28;20229;-51
2022/11/19 07:30:24;;;;;;;190.60;139.30;;;0.70;99.90;;;;;;5067615;28;20295;-51
2022/11/19 07:32:53;;;;;;;1018.57;480.93;;;0.70;99.90;;;;;;5067677;28;20210;-51
2022/11/19 07:35:21;;;;;;;1990.47;722.63;;;0.80;99.90;;;;;;5066840;28;20258;-51
2022/11/19 07:37:49;;;;;;;1570.03;597.37;;;0.80;99.90;;;;;;5068486;28;20210;-51
2022/11/19 07:40:17;;;;;;;1605.53;605.40;;;0.70;99.90;;;;;;5068222;28;20701;-51
2022/11/19 07:42:51;;;;;;;1999.90;999.90;;;0.80;99.90;;;;;;5067298;28;20246;-51
2022/11/19 07:45:21;;;;;;;1999.90;999.90;;;0.90;99.90;;;;;;5070877;28;20219;-52
2022/11/19 07:47:51;;;;;;;748.80;392.60;;;0.80;99.90;;;;;;5068164;28;20238;-50
2022/11/19 07:50:19;;;;;;;1999.90;916.27;;;0.80;99.90;;;;;;5067077;28;20726;-51
2022/11/19 07:52:47;;;;;;;1184.33;652.07;;;0.90;99.90;;;;;;5068231;28;20203;-50
2022/11/19 07:55:15;;;;;;;704.10;376.53;;;0.80;99.90;;;;;;5061242;28;20330;-50
2022/11/19 07:57:44;;;;;;;679.83;356.47;;;0.80;99.90;;;;;;5066950;28;20828;-50
2022/11/19 08:00:13;;;;;;;969.70;586.33;;;0.80;99.90;;;;;;5072947;28;20291;-52
2022/11/19 08:02:41;;;;;;;1999.90;928.60;;;0.80;99.90;;;;;;5071077;28;20292;-51
2022/11/19 08:05:11;;;;;;;943.50;363.03;;;0.90;99.90;;;;;;5075332;28;20303;-52
2022/11/19 08:07:39;;;;;;;1999.90;633.20;;;0.90;99.90;;;;;;5068297;28;20295;-51
2022/11/19 08:10:08;;;;;;;453.33;414.93;;;0.90;99.90;;;;;;5067743;28;20318;-51
2022/11/19 08:12:36;;;;;;;318.27;289.20;;;1.00;99.90;;;;;;5067409;28;20649;-52
2022/11/19 08:15:05;;;;;;;1999.90;875.77;;;1.00;99.90;;;;;;5066811;28;20271;-52
2022/11/19 08:20:20;;;;;;;1290.80;660.17;;;0.90;99.90;;;;;;5064045;28;20290;-51
2022/11/19 08:22:48;;;;;;;1999.90;740.63;;;0.90;99.90;;;;;;5066203;28;20231;-52
2022/11/19 08:25:17;;;;;;;1999.90;901.63;;;1.00;99.90;;;;;;5067606;28;20228;-52
2022/11/19 08:27:45;;;;;;;1999.90;999.90;;;0.90;99.90;;;;;;5063586;28;20294;-52
2022/11/19 08:30:14;;;;;;;1999.90;791.90;;;0.80;99.90;;;;;;5064847;28;20205;-52
2022/11/19 08:32:43;;;;;;;1182.63;680.90;;;0.80;99.90;;;;;;5067979;28;20240;-52
2022/11/19 08:35:11;;;;;;;1999.90;960.53;;;0.80;99.90;;;;;;5063016;28;20319;-52
2022/11/19 08:37:40;;;;;;;1572.50;747.90;;;0.80;99.90;;;;;;5063167;28;20668;-51
2022/11/19 08:40:09;;;;;;;1999.90;967.27;;;0.90;99.90;;;;;;5066536;28;20230;-51
2022/11/19 08:45:23;;;;;;;329.17;302.70;;;1.00;99.90;;;;;;5065338;28;20281;-52
2022/11/19 08:47:51;;;;;;;1554.30;805.30;;;1.00;99.90;;;;;;5065353;28;20302;-52
2022/11/19 08:50:19;;;;;;;1999.90;999.90;;;1.00;99.90;;;;;;5064963;28;20210;-50
2022/11/19 08:52:58;;;;;;;601.27;468.27;;;1.20;99.90;;;;;;5065101;28;20204;-52
2022/11/19 08:55:27;;;;;;;1999.90;999.90;;;1.20;99.90;;;;;;5066141;28;20324;-52
2022/11/19 08:57:59;;;;;;;1999.90;905.33;;;1.20;99.90;;;;;;5066721;28;20307;-52
2022/11/19 09:00:28;;;;;;;1991.73;691.83;;;1.20;99.90;;;;;;5061375;28;20311;-52
2022/11/19 09:02:56;;;;;;;648.27;592.40;;;1.10;99.90;;;;;;5066667;28;20210;-51
2022/11/19 09:05:25;;;;;;;1999.90;881.17;;;1.20;99.90;;;;;;5063102;28;20727;-51
2022/11/19 09:07:55;;;;;;;1867.53;879.83;;;1.20;99.90;;;;;;5062880;28;20253;-52
2022/11/19 09:10:23;;;;;;;1325.67;710.37;;;1.20;99.90;;;;;;5065024;28;20317;-52
2022/11/19 09:12:52;;;;;;;817.53;557.37;;;1.10;99.90;;;;;;5066570;28;20739;-51
2022/11/19 09:15:20;;;;;;;1999.90;896.43;;;1.20;99.90;;;;;;5066198;28;20325;-52
2022/11/19 09:17:48;;;;;;;1999.90;776.00;;;1.20;99.90;;;;;;5067253;28;20301;-52
2022/11/19 09:20:17;;;;;;;1999.90;996.60;;;1.20;99.90;;;;;;5065701;28;20250;-51
2022/11/19 09:22:45;;;;;;;936.13;818.00;;;1.20;99.90;;;;;;5071594;28;20219;-52
2022/11/19 09:25:14;;;;;;;1999.90;841.27;;;1.00;99.90;;;;;;5066230;28;20337;-51
2022/11/19 09:27:42;;;;;;;838.10;728.40;;;1.10;99.90;;;;;;5065329;28;20306;-52
2022/11/19 09:30:11;;;;;;;663.57;603.63;;;1.20;99.90;;;;;;5065230;28;20234;-52
2022/11/19 09:32:39;;;;;;;1860.13;785.87;;;1.20;99.90;;;;;;5063716;28;20291;-52
2022/11/19 09:35:08;;;;;;;843.93;576.27;;;1.30;99.90;;;;;;5064854;28;20223;-52
2022/11/19 09:37:36;;;;;;;1999.90;865.80;;;1.40;99.90;;;;;;5065069;28;20212;-52
2022/11/19 09:40:07;;;;;;;1999.90;999.90;;;1.50;99.90;;;;;;5063713;28;20236;-51
2022/11/19 09:42:44;;;;;;;1709.87;751.87;;;1.50;99.90;;;;;;5063927;28;20205;-52
2022/11/19 09:45:19;;;;;;;577.50;468.23;;;1.40;99.90;;;;;;5063395;28;20828;-52
2022/11/19 09:48:01;;;;;;;566.50;443.37;;;1.40;99.90;;;;;;5064556;28;20209;-51
2022/11/19 09:50:32;;;;;;;1999.90;999.90;;;1.50;99.90;;;;;;5065824;28;20287;-52
2022/11/19 09:53:07;;;;;;;1165.17;768.67;;;1.40;99.90;;;;;;5064334;28;20216;-51
2022/11/19 09:55:37;;;;;;;1999.90;910.33;;;1.40;99.90;;;;;;5070191;28;20266;-51
2022/11/19 09:58:14;;;;;;;915.03;711.57;;;1.40;99.90;;;;;;5070054;28;20471;-53
2022/11/19 10:00:44;;;;;;;896.07;781.73;;;1.40;99.90;;;;;;5069966;28;20210;-52
2022/11/19 10:03:16;;;;;;;744.17;668.13;;;1.50;99.90;;;;;;5064270;28;20207;-52
2022/11/19 10:05:56;;;;;;;1999.90;771.93;;;1.60;99.90;;;;;;5069232;28;20197;-53
2022/11/19 10:08:35;;;;;;;1999.90;999.90;;;1.70;99.90;;;;;;5067530;28;20219;-52
2022/11/19 10:11:19;;;;;;;1962.00;816.23;;;1.50;99.90;;;;;;5070169;28;20254;-52
2022/11/19 10:14:03;;;;;;;1999.90;896.67;;;1.40;99.90;;;;;;5064469;28;20798;-52
2022/11/19 10:16:46;;;;;;;1999.90;999.90;;;1.50;99.90;;;;;;5066415;28;20317;-52
2022/11/19 10:19:30;;;;;;;1999.90;958.23;;;1.40;99.90;;;;;;5067426;28;21032;-52
2022/11/19 10:22:06;;;;;;;1999.90;923.33;;;1.30;99.90;;;;;;5066174;28;20207;-52
2022/11/19 10:24:41;;;;;;;1871.80;898.40;;;1.20;99.90;;;;;;5070101;28;20310;-52
2022/11/19 10:27:18;;;;;;;1999.90;999.90;;;1.20;99.90;;;;;;5069602;28;20242;-52
2022/11/19 10:29:53;;;;;;;1999.90;975.57;;;1.20;99.90;;;;;;5066705;28;20211;-52
2022/11/19 10:32:27;;;;;;;1787.17;733.20;;;1.30;99.90;;;;;;5068808;28;20687;-52
2022/11/19 10:34:58;;;;;;;1999.90;952.07;;;1.30;99.90;;;;;;5065382;28;20266;-51
2022/11/19 10:37:32;;;;;;;1999.90;887.47;;;1.30;99.90;;;;;;5069130;28;20326;-51
2022/11/19 10:40:06;;;;;;;1999.90;990.60;;;1.30;99.90;;;;;;5057607;28;20194;-51
2022/11/19 10:42:38;;;;;;;805.57;668.10;;;1.30;99.90;;;;;;5069185;28;20209;-51
2022/11/19 10:45:15;;;;;;;1999.90;919.37;;;1.40;99.90;;;;;;5068419;28;20879;-51
2022/11/19 10:47:49;;;;;;;1999.90;932.00;;;1.40;99.90;;;;;;5069267;28;20207;-51
2022/11/19 10:50:18;;;;;;;1999.90;971.93;;;1.40;99.90;;;;;;5069295;28;20215;-52
2022/11/19 10:52:52;;;;;;;654.13;588.43;;;1.40;99.90;;;;;;5068849;28;20339;-51
2022/11/19 10:55:27;;;;;;;1999.90;962.27;;;1.50;99.90;;;;;;5068756;28;20264;-52
2022/11/19 10:58:07;;;;;;;1999.90;862.10;;;1.50;99.90;;;;;;5069013;28;20311;-52
2022/11/19 11:00:39;;;;;;;1999.90;941.77;;;1.70;99.90;;;;;;5067924;28;20654;-53
2022/11/19 11:03:18;;;;;;;1999.90;999.90;;;1.80;99.90;;;;;;5063766;28;20211;-52
2022/11/19 11:05:58;;;;;;;711.00;603.80;;;1.60;99.90;;;;;;5065896;28;20227;-52
2022/11/19 11:08:26;;;;;;;880.43;596.33;;;1.70;99.90;;;;;;5066256;28;20239;-52
2022/11/19 11:10:54;;;;;;;1999.90;894.27;;;1.60;99.90;;;;;;5068846;28;20871;-51
2022/11/19 11:16:39;;;;;;;1136.53;717.40;;;1.90;99.90;;;;;;5067938;28;20302;-52
2022/11/19 11:19:13;;;;;;;641.53;581.13;;;1.90;99.90;;;;;;5067966;28;20220;-52
2022/11/19 11:21:42;;;;;;;1999.90;927.47;;;2.00;99.90;;;;;;5067534;28;20280;-52
2022/11/19 11:24:12;;;;;;;457.03;422.40;;;1.90;99.90;;;;;;5067401;28;20235;-53
2022/11/19 11:26:40;;;;;;;1999.90;999.90;;;2.10;99.90;;;;;;5066545;28;20208;-51
2022/11/19 11:29:25;;;;;;;850.33;662.23;;;2.20;99.90;;;;;;5067850;28;20308;-52
2022/11/19 11:31:54;;;;;;;1303.17;825.83;;;2.20;99.90;;;;;;5068024;28;20304;-52
2022/11/19 11:34:32;;;;;;;1424.90;552.83;;;2.10;99.90;;;;;;5063663;28;20224;-52
2022/11/19 11:37:02;;;;;;;1252.27;757.10;;;2.20;99.90;;;;;;5068396;28;20227;-52
2022/11/19 11:39:32;;;;;;;1579.83;857.03;;;2.20;99.90;;;;;;5068599;28;20286;-52
2022/11/19 11:42:01;;;;;;;1999.90;999.90;;;2.10;99.90;;;;;;5067786;28;20299;-51
2022/11/19 11:44:35;;;;;;;1814.00;836.57;;;2.10;99.90;;;;;;5066539;28;20234;-51
2022/11/19 11:47:12;;;;;;;1999.90;999.90;;;2.00;99.90;;;;;;5067625;28;20295;-52
2022/11/19 11:49:42;;;;;;;1999.90;908.03;;;2.00;99.90;;;;;;5065224;28;20201;-52
2022/11/19 11:52:17;;;;;;;1999.90;999.90;;;2.00;99.90;;;;;;5068254;28;20290;-50
2022/11/19 11:54:57;;;;;;;1999.90;999.43;;;1.90;99.90;;;;;;5067385;28;20230;-51
2022/11/19 11:57:27;;;;;;;1999.90;955.17;;;1.90;99.90;;;;;;5067828;28;20678;-53
2022/11/19 11:59:56;;;;;;;1999.90;873.70;;;1.80;99.90;;;;;;5068684;28;20295;-52
2022/11/19 12:02:29;;;;;;;1999.90;926.20;;;1.80;99.90;;;;;;5067584;28;20296;-51
2022/11/19 12:05:00;;;;;;;1795.73;757.43;;;1.80;99.90;;;;;;5068190;28;20256;-52
2022/11/19 12:07:59;;;;;;;1999.90;951.67;;;1.80;99.90;;;;;;5068552;28;20219;-53
2022/11/19 12:10:33;;;;;;;1118.17;733.23;;;1.70;99.90;;;;;;5062850;28;20202;-52
2022/11/19 12:13:42;;;;;;;1849.20;814.30;;;1.60;99.90;;;;;;5063452;28;20291;-52
2022/11/19 12:16:19;;;;;;;1845.60;802.87;;;1.60;99.90;;;;;;5066513;28;20229;-52
2022/11/19 12:19:04;;;;;;;1999.90;999.90;;;1.50;99.90;;;;;;5067841;28;20234;-52
2022/11/19 12:21:41;;;;;;;1999.90;999.90;;;1.40;99.90;;;;;;5068377;28;20290;-52
2022/11/19 12:24:26;;;;;;;1999.90;999.90;;;1.40;99.90;;;;;;5066990;28;20259;-52
2022/11/19 12:27:01;;;;;;;1999.90;999.90;;;1.30;99.90;;;;;;5068462;28;20314;-51
2022/11/19 12:29:38;;;;;;;1999.90;999.90;;;1.30;99.90;;;;;;5067185;28;20289;-53
2022/11/19 12:32:21;;;;;;;1411.57;710.47;;;1.10;99.90;;;;;;5068431;28;20294;-52
2022/11/19 12:35:14;;;;;;;1562.83;709.17;;;1.00;99.90;;;;;;5067166;28;20592;-52
2022/11/19 12:37:58;;;;;;;561.47;422.90;;;1.00;99.90;;;;;;5068533;28;20267;-52
2022/11/19 12:40:38;;;;;;;1190.70;645.03;;;1.00;99.90;;;;;;5068033;28;20289;-52
2022/11/19 12:43:23;;;;;;;1968.20;933.67;;;1.00;99.90;;;;;;5066820;28;20221;-52
2022/11/19 12:45:59;;;;;;;788.63;675.50;;;0.90;99.90;;;;;;5066779;28;20264;-52
2022/11/19 12:48:41;;;;;;;1968.63;914.30;;;0.90;99.90;;;;;;5069167;28;20698;-52
2022/11/19 12:51:25;;;;;;;604.67;425.47;;;1.00;99.90;;;;;;5068547;28;20297;-52
2022/11/19 12:54:28;;;;;;;787.53;581.37;;;0.90;99.90;;;;;;5064181;28;20229;-51